sensor_id;sensor_type;location;lat;lon;timestamp;P1;durP1;ratioP1;P2;durP2;ratioP2
24867;SDS011;12941;48.698;9.310;2023-08-06T00:00:26;7.3;;;6.1;;
24867;SDS011;12941;48.698;9.310;2023-08-06T00:01:31;7.3;;;6.1;;
24867;SDS011;12941;48.698;9.310;2023-08-06T00:02:31;6.7;;;5.9;;
24867;SDS011;12941;48.698;9.310;2023-08-06T00:03:31;6.7;;;5.9;;
24867;SDS011;12941;48.698;9.310;2023-08-06T00:04:31;6.7;;;5.9;;
24867;SDS011;12941;48.698;9.310;2023-08-06T00:05:31;6.7;;;5.9;;
24867;SDS011;12941;48.698;9.310;2023-08-06T00:06:31;6.7;;;5.9;;
24867;SDS011;12941;48.698;9.310;2023-08-06T00:07:36;6;;;5.4;;
24867;SDS011;12941;48.698;9.310;2023-08-06T00:08:41;6;;;5.4;;
24867;SDS011;12941;48.698;9.310;2023-08-06T00:09:41;6;;;5.4;;
24867;SDS011;12941;48.698;9.310;2023-08-06T00:10:41;6;;;5.4;;
24867;SDS011;12941;48.698;9.310;2023-08-06T00:11:41;7.4;;;5.8;;
24867;SDS011;12941;48.698;9.310;2023-08-06T00:12:41;7.4;;;5.8;;
24867;SDS011;12941;48.698;9.310;2023-08-06T00:13:41;7.4;;;5.8;;
24867;SDS011;12941;48.698;9.310;2023-08-06T00:14:41;7.4;;;5.8;;
24867;SDS011;12941;48.698;9.310;2023-08-06T00:15:46;7.4;;;5.8;;
24867;SDS011;12941;48.698;9.310;2023-08-06T00:16:46;6.8;;;6.1;;
24867;SDS011;12941;48.698;9.310;2023-08-06T00:17:51;6.8;;;6.1;;
24867;SDS011;12941;48.698;9.310;2023-08-06T00:18:51;6.8;;;6.1;;
24867;SDS011;12941;48.698;9.310;2023-08-06T00:19:51;6.8;;;6.1;;
24867;SDS011;12941;48.698;9.310;2023-08-06T00:20:56;6.8;;;6.1;;
24867;SDS011;12941;48.698;9.310;2023-08-06T00:21:56;6.1;;;5.5;;
24867;SDS011;12941;48.698;9.310;2023-08-06T00:23:01;6.1;;;5.5;;
24867;SDS011;12941;48.698;9.310;2023-08-06T00:24:01;6.1;;;5.5;;
24867;SDS011;12941;48.698;9.310;2023-08-06T00:25:01;6.1;;;5.5;;
24867;SDS011;12941;48.698;9.310;2023-08-06T00:26:01;6.1;;;5.5;;
24867;SDS011;12941;48.698;9.310;2023-08-06T00:27:01;5.6;;;5.1;;
24867;SDS011;12941;48.698;9.310;2023-08-06T00:28:06;5.6;;;5.1;;
24867;SDS011;12941;48.698;9.310;2023-08-06T00:29:11;5.6;;;5.1;;
24867;SDS011;12941;48.698;9.310;2023-08-06T00:30:16;5.6;;;5.1;;
24867;SDS011;12941;48.698;9.310;2023-08-06T00:31:16;5.6;;;5.1;;
24867;SDS011;12941;48.698;9.310;2023-08-06T00:32:16;6.7;;;6;;
24867;SDS011;12941;48.698;9.310;2023-08-06T00:33:16;6.7;;;6;;
24867;SDS011;12941;48.698;9.310;2023-08-06T00:34:21;6.7;;;6;;
24867;SDS011;12941;48.698;9.310;2023-08-06T00:35:26;6.7;;;6;;
24867;SDS011;12941;48.698;9.310;2023-08-06T00:36:31;6.7;;;6;;
24867;SDS011;12941;48.698;9.310;2023-08-06T00:37:31;6.2;;;5.6;;
24867;SDS011;12941;48.698;9.310;2023-08-06T00:38:36;6.2;;;5.6;;
24867;SDS011;12941;48.698;9.310;2023-08-06T00:39:37;6.2;;;5.6;;
24867;SDS011;12941;48.698;9.310;2023-08-06T00:40:41;6.2;;;5.6;;
24867;SDS011;12941;48.698;9.310;2023-08-06T00:41:41;6.6;;;5.7;;
24867;SDS011;12941;48.698;9.310;2023-08-06T00:42:41;6.6;;;5.7;;
24867;SDS011;12941;48.698;9.310;2023-08-06T00:43:46;6.6;;;5.7;;
24867;SDS011;12941;48.698;9.310;2023-08-06T00:44:46;6.6;;;5.7;;
24867;SDS011;12941;48.698;9.310;2023-08-06T00:45:46;6.6;;;5.7;;
24867;SDS011;12941;48.698;9.310;2023-08-06T00:46:46;6.2;;;5.5;;
24867;SDS011;12941;48.698;9.310;2023-08-06T00:47:51;6.2;;;5.5;;
24867;SDS011;12941;48.698;9.310;2023-08-06T00:48:56;6.2;;;5.5;;
24867;SDS011;12941;48.698;9.310;2023-08-06T00:49:56;6.2;;;5.5;;
24867;SDS011;12941;48.698;9.310;2023-08-06T00:51:01;6.2;;;5.5;;
24867;SDS011;12941;48.698;9.310;2023-08-06T00:52:06;7.3;;;6.1;;
24867;SDS011;12941;48.698;9.310;2023-08-06T00:53:06;7.3;;;6.1;;
24867;SDS011;12941;48.698;9.310;2023-08-06T00:54:06;7.3;;;6.1;;
24867;SDS011;12941;48.698;9.310;2023-08-06T00:55:12;7.3;;;6.1;;
24867;SDS011;12941;48.698;9.310;2023-08-06T00:56:12;7.3;;;6.1;;
24867;SDS011;12941;48.698;9.310;2023-08-06T00:57:12;6.4;;;5.8;;
24867;SDS011;12941;48.698;9.310;2023-08-06T00:58:16;6.4;;;5.8;;
24867;SDS011;12941;48.698;9.310;2023-08-06T00:59:16;6.4;;;5.8;;
24867;SDS011;12941;48.698;9.310;2023-08-06T01:00:17;6.4;;;5.8;;
24867;SDS011;12941;48.698;9.310;2023-08-06T01:01:17;6.4;;;5.8;;
24867;SDS011;12941;48.698;9.310;2023-08-06T01:02:21;6.2;;;5.6;;
24867;SDS011;12941;48.698;9.310;2023-08-06T01:03:27;6.2;;;5.6;;
24867;SDS011;12941;48.698;9.310;2023-08-06T01:04:27;6.2;;;5.6;;
24867;SDS011;12941;48.698;9.310;2023-08-06T01:05:31;6.2;;;5.6;;
24867;SDS011;12941;48.698;9.310;2023-08-06T01:06:34;6.2;;;5.6;;
24867;SDS011;12941;48.698;9.310;2023-08-06T01:07:39;6.1;;;5.5;;
24867;SDS011;12941;48.698;9.310;2023-08-06T01:08:44;6.1;;;5.5;;
24867;SDS011;12941;48.698;9.310;2023-08-06T01:09:43;6.1;;;5.5;;
24867;SDS011;12941;48.698;9.310;2023-08-06T01:10:50;6.1;;;5.5;;
24867;SDS011;12941;48.698;9.310;2023-08-06T01:11:50;6.7;;;5.4;;
24867;SDS011;12941;48.698;9.310;2023-08-06T01:12:48;6.7;;;5.4;;
24867;SDS011;12941;48.698;9.310;2023-08-06T01:13:53;6.7;;;5.4;;
24867;SDS011;12941;48.698;9.310;2023-08-06T01:14:53;6.7;;;5.4;;
24867;SDS011;12941;48.698;9.310;2023-08-06T01:15:53;6.7;;;5.4;;
24867;SDS011;12941;48.698;9.310;2023-08-06T01:16:57;6.5;;;5.8;;
24867;SDS011;12941;48.698;9.310;2023-08-06T01:17:57;6.5;;;5.8;;
24867;SDS011;12941;48.698;9.310;2023-08-06T01:19:02;6.5;;;5.8;;
24867;SDS011;12941;48.698;9.310;2023-08-06T01:20:07;6.5;;;5.8;;
24867;SDS011;12941;48.698;9.310;2023-08-06T01:21:07;6.5;;;5.8;;
24867;SDS011;12941;48.698;9.310;2023-08-06T01:22:12;6.2;;;5.7;;
24867;SDS011;12941;48.698;9.310;2023-08-06T01:23:17;6.2;;;5.7;;
24867;SDS011;12941;48.698;9.310;2023-08-06T01:24:17;6.2;;;5.7;;
24867;SDS011;12941;48.698;9.310;2023-08-06T01:25:22;6.2;;;5.7;;
24867;SDS011;12941;48.698;9.310;2023-08-06T01:26:23;6.2;;;5.7;;
24867;SDS011;12941;48.698;9.310;2023-08-06T01:27:23;5.7;;;5.2;;
24867;SDS011;12941;48.698;9.310;2023-08-06T01:28:27;5.7;;;5.2;;
24867;SDS011;12941;48.698;9.310;2023-08-06T01:29:34;5.7;;;5.2;;
24867;SDS011;12941;48.698;9.310;2023-08-06T01:30:37;5.7;;;5.2;;
24867;SDS011;12941;48.698;9.310;2023-08-06T01:31:41;6.4;;;5.8;;
24867;SDS011;12941;48.698;9.310;2023-08-06T01:32:42;6.4;;;5.8;;
24867;SDS011;12941;48.698;9.310;2023-08-06T01:33:47;6.4;;;5.8;;
24867;SDS011;12941;48.698;9.310;2023-08-06T01:34:47;6.4;;;5.8;;
24867;SDS011;12941;48.698;9.310;2023-08-06T01:35:52;6.4;;;5.8;;
24867;SDS011;12941;48.698;9.310;2023-08-06T01:36:52;7.6;;;6.6;;
24867;SDS011;12941;48.698;9.310;2023-08-06T01:37:57;7.6;;;6.6;;
24867;SDS011;12941;48.698;9.310;2023-08-06T01:39:02;7.6;;;6.6;;
24867;SDS011;12941;48.698;9.310;2023-08-06T01:40:07;7.6;;;6.6;;
24867;SDS011;12941;48.698;9.310;2023-08-06T01:41:07;7.6;;;6.6;;
24867;SDS011;12941;48.698;9.310;2023-08-06T01:42:07;6.7;;;6;;
24867;SDS011;12941;48.698;9.310;2023-08-06T01:43:12;6.7;;;6;;
24867;SDS011;12941;48.698;9.310;2023-08-06T01:44:17;6.7;;;6;;
24867;SDS011;12941;48.698;9.310;2023-08-06T01:45:22;6.7;;;6;;
24867;SDS011;12941;48.698;9.310;2023-08-06T01:46:27;6.7;;;6;;
24867;SDS011;12941;48.698;9.310;2023-08-06T01:47:27;5.9;;;5.1;;
24867;SDS011;12941;48.698;9.310;2023-08-06T01:48:27;5.9;;;5.1;;
24867;SDS011;12941;48.698;9.310;2023-08-06T01:49:32;5.9;;;5.1;;
24867;SDS011;12941;48.698;9.310;2023-08-06T01:50:32;5.9;;;5.1;;
24867;SDS011;12941;48.698;9.310;2023-08-06T01:51:37;3.5;;;3.2;;
24867;SDS011;12941;48.698;9.310;2023-08-06T01:52:42;3.5;;;3.2;;
24867;SDS011;12941;48.698;9.310;2023-08-06T01:53:42;3.5;;;3.2;;
24867;SDS011;12941;48.698;9.310;2023-08-06T01:54:42;3.5;;;3.2;;
24867;SDS011;12941;48.698;9.310;2023-08-06T01:55:47;3.5;;;3.2;;
24867;SDS011;12941;48.698;9.310;2023-08-06T01:56:52;3.6;;;3;;
24867;SDS011;12941;48.698;9.310;2023-08-06T01:57:57;3.6;;;3;;
24867;SDS011;12941;48.698;9.310;2023-08-06T01:58:57;3.6;;;3;;
24867;SDS011;12941;48.698;9.310;2023-08-06T02:00:02;3.6;;;3;;
24867;SDS011;12941;48.698;9.310;2023-08-06T02:01:02;3.6;;;3;;
24867;SDS011;12941;48.698;9.310;2023-08-06T02:02:07;3.4;;;3;;
24867;SDS011;12941;48.698;9.310;2023-08-06T02:03:12;3.4;;;3;;
24867;SDS011;12941;48.698;9.310;2023-08-06T02:04:17;3.4;;;3;;
24867;SDS011;12941;48.698;9.310;2023-08-06T02:05:22;3.4;;;3;;
24867;SDS011;12941;48.698;9.310;2023-08-06T02:06:22;3.4;;;3;;
24867;SDS011;12941;48.698;9.310;2023-08-06T02:07:27;2.8;;;2.5;;
24867;SDS011;12941;48.698;9.310;2023-08-06T02:08:32;2.8;;;2.5;;
24867;SDS011;12941;48.698;9.310;2023-08-06T02:09:37;2.8;;;2.5;;
24867;SDS011;12941;48.698;9.310;2023-08-06T02:10:37;2.8;;;2.5;;
24867;SDS011;12941;48.698;9.310;2023-08-06T02:11:37;2.8;;;2.5;;
24867;SDS011;12941;48.698;9.310;2023-08-06T02:12:37;2.7;;;2.5;;
24867;SDS011;12941;48.698;9.310;2023-08-06T02:13:42;2.7;;;2.5;;
24867;SDS011;12941;48.698;9.310;2023-08-06T02:14:42;2.7;;;2.5;;
24867;SDS011;12941;48.698;9.310;2023-08-06T02:15:42;2.7;;;2.5;;
24867;SDS011;12941;48.698;9.310;2023-08-06T02:16:47;3.4;;;2.4;;
24867;SDS011;12941;48.698;9.310;2023-08-06T02:17:47;3.4;;;2.4;;
24867;SDS011;12941;48.698;9.310;2023-08-06T02:18:52;3.4;;;2.4;;
24867;SDS011;12941;48.698;9.310;2023-08-06T02:19:57;3.4;;;2.4;;
24867;SDS011;12941;48.698;9.310;2023-08-06T02:21:02;3.4;;;2.4;;
24867;SDS011;12941;48.698;9.310;2023-08-06T02:22:07;4.1;;;2.1;;
24867;SDS011;12941;48.698;9.310;2023-08-06T02:23:07;4.1;;;2.1;;
24867;SDS011;12941;48.698;9.310;2023-08-06T02:24:12;4.1;;;2.1;;
24867;SDS011;12941;48.698;9.310;2023-08-06T02:25:12;4.1;;;2.1;;
24867;SDS011;12941;48.698;9.310;2023-08-06T02:26:17;4.1;;;2.1;;
24867;SDS011;12941;48.698;9.310;2023-08-06T02:27:17;2.6;;;2.4;;
24867;SDS011;12941;48.698;9.310;2023-08-06T02:28:17;2.6;;;2.4;;
24867;SDS011;12941;48.698;9.310;2023-08-06T02:29:22;2.6;;;2.4;;
24867;SDS011;12941;48.698;9.310;2023-08-06T02:30:27;2.6;;;2.4;;
24867;SDS011;12941;48.698;9.310;2023-08-06T02:31:27;2.6;;;2.4;;
24867;SDS011;12941;48.698;9.310;2023-08-06T02:32:32;4.6;;;2.3;;
24867;SDS011;12941;48.698;9.310;2023-08-06T02:33:37;4.6;;;2.3;;
24867;SDS011;12941;48.698;9.310;2023-08-06T02:34:38;4.6;;;2.3;;
24867;SDS011;12941;48.698;9.310;2023-08-06T02:35:37;4.6;;;2.3;;
24867;SDS011;12941;48.698;9.310;2023-08-06T02:36:40;2.4;;;2.2;;
24867;SDS011;12941;48.698;9.310;2023-08-06T02:37:42;2.4;;;2.2;;
24867;SDS011;12941;48.698;9.310;2023-08-06T02:38:47;2.4;;;2.2;;
24867;SDS011;12941;48.698;9.310;2023-08-06T02:39:47;2.4;;;2.2;;
24867;SDS011;12941;48.698;9.310;2023-08-06T02:40:47;2.4;;;2.2;;
24867;SDS011;12941;48.698;9.310;2023-08-06T02:41:47;2.9;;;2.4;;
24867;SDS011;12941;48.698;9.310;2023-08-06T02:42:52;2.9;;;2.4;;
24867;SDS011;12941;48.698;9.310;2023-08-06T02:43:52;2.9;;;2.4;;
24867;SDS011;12941;48.698;9.310;2023-08-06T02:44:52;2.9;;;2.4;;
24867;SDS011;12941;48.698;9.310;2023-08-06T02:45:57;2.9;;;2.4;;
24867;SDS011;12941;48.698;9.310;2023-08-06T02:46:57;4.3;;;2.2;;
24867;SDS011;12941;48.698;9.310;2023-08-06T02:47:57;4.3;;;2.2;;
24867;SDS011;12941;48.698;9.310;2023-08-06T02:49:02;4.3;;;2.2;;
24867;SDS011;12941;48.698;9.310;2023-08-06T02:50:03;4.3;;;2.2;;
24867;SDS011;12941;48.698;9.310;2023-08-06T02:51:03;4.3;;;2.2;;
24867;SDS011;12941;48.698;9.310;2023-08-06T02:52:07;2.5;;;2.3;;
24867;SDS011;12941;48.698;9.310;2023-08-06T02:53:08;2.5;;;2.3;;
24867;SDS011;12941;48.698;9.310;2023-08-06T02:54:12;2.5;;;2.3;;
24867;SDS011;12941;48.698;9.310;2023-08-06T02:55:13;2.5;;;2.3;;
24867;SDS011;12941;48.698;9.310;2023-08-06T02:56:18;2.5;;;2.3;;
24867;SDS011;12941;48.698;9.310;2023-08-06T02:57:18;2.6;;;2.1;;
24867;SDS011;12941;48.698;9.310;2023-08-06T02:58:23;2.6;;;2.1;;
24867;SDS011;12941;48.698;9.310;2023-08-06T02:59:23;2.6;;;2.1;;
24867;SDS011;12941;48.698;9.310;2023-08-06T03:00:28;2.6;;;2.1;;
24867;SDS011;12941;48.698;9.310;2023-08-06T03:01:28;2.6;;;2.1;;
24867;SDS011;12941;48.698;9.310;2023-08-06T03:02:28;2.3;;;1.9;;
24867;SDS011;12941;48.698;9.310;2023-08-06T03:03:33;2.3;;;1.9;;
24867;SDS011;12941;48.698;9.310;2023-08-06T03:04:33;2.3;;;1.9;;
24867;SDS011;12941;48.698;9.310;2023-08-06T03:05:38;2.3;;;1.9;;
24867;SDS011;12941;48.698;9.310;2023-08-06T03:06:38;2.3;;;2;;
24867;SDS011;12941;48.698;9.310;2023-08-06T03:07:43;2.3;;;1.9;;
24867;SDS011;12941;48.698;9.310;2023-08-06T03:08:48;2.3;;;1.9;;
24867;SDS011;12941;48.698;9.310;2023-08-06T03:09:53;2.3;;;1.9;;
24867;SDS011;12941;48.698;9.310;2023-08-06T03:10:58;2.3;;;1.9;;
24867;SDS011;12941;48.698;9.310;2023-08-06T03:11:58;2.3;;;1.8;;
24867;SDS011;12941;48.698;9.310;2023-08-06T03:13:03;2.3;;;1.8;;
24867;SDS011;12941;48.698;9.310;2023-08-06T03:14:03;2.3;;;1.8;;
24867;SDS011;12941;48.698;9.310;2023-08-06T03:15:08;2.3;;;1.8;;
24867;SDS011;12941;48.698;9.310;2023-08-06T03:16:08;2.3;;;1.8;;
24867;SDS011;12941;48.698;9.310;2023-08-06T03:17:13;3.2;;;1.9;;
24867;SDS011;12941;48.698;9.310;2023-08-06T03:18:13;3.2;;;1.9;;
24867;SDS011;12941;48.698;9.310;2023-08-06T03:19:18;3.2;;;1.9;;
24867;SDS011;12941;48.698;9.310;2023-08-06T03:20:18;3.2;;;1.9;;
24867;SDS011;12941;48.698;9.310;2023-08-06T03:21:23;3.2;;;1.9;;
24867;SDS011;12941;48.698;9.310;2023-08-06T03:22:28;3.6;;;1.9;;
24867;SDS011;12941;48.698;9.310;2023-08-06T03:23:28;3.6;;;1.9;;
24867;SDS011;12941;48.698;9.310;2023-08-06T03:24:33;3.6;;;1.9;;
24867;SDS011;12941;48.698;9.310;2023-08-06T03:25:34;3.6;;;1.9;;
24867;SDS011;12941;48.698;9.310;2023-08-06T03:26:38;2.8;;;2.2;;
24867;SDS011;12941;48.698;9.310;2023-08-06T03:27:43;2.7;;;2.1;;
24867;SDS011;12941;48.698;9.310;2023-08-06T03:28:43;2.7;;;2.1;;
24867;SDS011;12941;48.698;9.310;2023-08-06T03:29:48;2.7;;;2.1;;
24867;SDS011;12941;48.698;9.310;2023-08-06T03:30:48;2.7;;;2.1;;
24867;SDS011;12941;48.698;9.310;2023-08-06T03:31:53;2.6;;;1.9;;
24867;SDS011;12941;48.698;9.310;2023-08-06T03:32:58;2.6;;;1.9;;
24867;SDS011;12941;48.698;9.310;2023-08-06T03:34:03;2.6;;;1.9;;
24867;SDS011;12941;48.698;9.310;2023-08-06T03:35:08;2.6;;;1.9;;
24867;SDS011;12941;48.698;9.310;2023-08-06T03:36:13;2.6;;;1.9;;
24867;SDS011;12941;48.698;9.310;2023-08-06T03:37:18;3.4;;;2;;
24867;SDS011;12941;48.698;9.310;2023-08-06T03:38:23;3.4;;;2;;
24867;SDS011;12941;48.698;9.310;2023-08-06T03:39:23;3.4;;;2;;
24867;SDS011;12941;48.698;9.310;2023-08-06T03:40:23;3.4;;;2;;
24867;SDS011;12941;48.698;9.310;2023-08-06T03:41:28;3.4;;;2;;
24867;SDS011;12941;48.698;9.310;2023-08-06T03:42:33;3.2;;;1.9;;
24867;SDS011;12941;48.698;9.310;2023-08-06T03:43:33;3.2;;;1.9;;
24867;SDS011;12941;48.698;9.310;2023-08-06T03:44:38;3.2;;;1.9;;
24867;SDS011;12941;48.698;9.310;2023-08-06T03:45:43;3.2;;;1.9;;
24867;SDS011;12941;48.698;9.310;2023-08-06T03:46:43;2.7;;;1.9;;
24867;SDS011;12941;48.698;9.310;2023-08-06T03:47:48;2.7;;;1.9;;
24867;SDS011;12941;48.698;9.310;2023-08-06T03:48:53;2.7;;;1.9;;
24867;SDS011;12941;48.698;9.310;2023-08-06T03:49:53;2.7;;;1.9;;
24867;SDS011;12941;48.698;9.310;2023-08-06T03:50:53;2.7;;;1.9;;
24867;SDS011;12941;48.698;9.310;2023-08-06T03:51:53;2.2;;;1.9;;
24867;SDS011;12941;48.698;9.310;2023-08-06T03:52:58;2.2;;;1.9;;
24867;SDS011;12941;48.698;9.310;2023-08-06T03:53:58;2.2;;;1.9;;
24867;SDS011;12941;48.698;9.310;2023-08-06T03:55:03;2.2;;;1.9;;
24867;SDS011;12941;48.698;9.310;2023-08-06T03:56:03;2.2;;;1.9;;
24867;SDS011;12941;48.698;9.310;2023-08-06T03:57:08;3.4;;;1.8;;
24867;SDS011;12941;48.698;9.310;2023-08-06T03:58:13;3.4;;;1.8;;
24867;SDS011;12941;48.698;9.310;2023-08-06T03:59:13;3.4;;;1.8;;
24867;SDS011;12941;48.698;9.310;2023-08-06T04:00:13;3.4;;;1.8;;
24867;SDS011;12941;48.698;9.310;2023-08-06T04:01:13;3.4;;;1.8;;
24867;SDS011;12941;48.698;9.310;2023-08-06T04:02:13;2.3;;;1.6;;
24867;SDS011;12941;48.698;9.310;2023-08-06T04:03:13;2.3;;;1.6;;
24867;SDS011;12941;48.698;9.310;2023-08-06T04:04:15;2.3;;;1.6;;
24867;SDS011;12941;48.698;9.310;2023-08-06T04:05:18;2.3;;;1.6;;
24867;SDS011;12941;48.698;9.310;2023-08-06T04:06:18;2.3;;;1.6;;
24867;SDS011;12941;48.698;9.310;2023-08-06T04:07:23;2.4;;;1.9;;
24867;SDS011;12941;48.698;9.310;2023-08-06T04:08:28;2.4;;;1.9;;
24867;SDS011;12941;48.698;9.310;2023-08-06T04:09:29;2.4;;;1.9;;
24867;SDS011;12941;48.698;9.310;2023-08-06T04:10:33;2.4;;;1.9;;
24867;SDS011;12941;48.698;9.310;2023-08-06T04:11:33;2.4;;;1.9;;
24867;SDS011;12941;48.698;9.310;2023-08-06T04:12:33;2;;;1.6;;
24867;SDS011;12941;48.698;9.310;2023-08-06T04:13:41;2;;;1.6;;
24867;SDS011;12941;48.698;9.310;2023-08-06T04:14:43;2;;;1.6;;
24867;SDS011;12941;48.698;9.310;2023-08-06T04:15:48;2;;;1.6;;
24867;SDS011;12941;48.698;9.310;2023-08-06T04:16:53;1.9;;;1.7;;
24867;SDS011;12941;48.698;9.310;2023-08-06T04:17:58;1.9;;;1.7;;
24867;SDS011;12941;48.698;9.310;2023-08-06T04:19:03;1.9;;;1.7;;
24867;SDS011;12941;48.698;9.310;2023-08-06T04:20:04;1.9;;;1.7;;
24867;SDS011;12941;48.698;9.310;2023-08-06T04:21:03;1.9;;;1.7;;
24867;SDS011;12941;48.698;9.310;2023-08-06T04:22:03;2.2;;;1.5;;
24867;SDS011;12941;48.698;9.310;2023-08-06T04:23:05;2.2;;;1.5;;
24867;SDS011;12941;48.698;9.310;2023-08-06T04:24:03;2.2;;;1.5;;
24867;SDS011;12941;48.698;9.310;2023-08-06T04:25:09;2.2;;;1.5;;
24867;SDS011;12941;48.698;9.310;2023-08-06T04:26:08;2.2;;;1.5;;
24867;SDS011;12941;48.698;9.310;2023-08-06T04:27:14;2.9;;;1.6;;
24867;SDS011;12941;48.698;9.310;2023-08-06T04:28:19;2.9;;;1.6;;
24867;SDS011;12941;48.698;9.310;2023-08-06T04:29:23;2.9;;;1.6;;
24867;SDS011;12941;48.698;9.310;2023-08-06T04:30:28;2.9;;;1.6;;
24867;SDS011;12941;48.698;9.310;2023-08-06T04:31:33;2.9;;;1.6;;
24867;SDS011;12941;48.698;9.310;2023-08-06T04:32:34;4.4;;;2.2;;
24867;SDS011;12941;48.698;9.310;2023-08-06T04:33:38;4.4;;;2.2;;
24867;SDS011;12941;48.698;9.310;2023-08-06T04:34:44;4.4;;;2.2;;
24867;SDS011;12941;48.698;9.310;2023-08-06T04:35:44;4.4;;;2.2;;
24867;SDS011;12941;48.698;9.310;2023-08-06T04:36:48;3.5;;;2.2;;
24867;SDS011;12941;48.698;9.310;2023-08-06T04:37:53;3.5;;;2.2;;
24867;SDS011;12941;48.698;9.310;2023-08-06T04:38:59;3.5;;;2.2;;
24867;SDS011;12941;48.698;9.310;2023-08-06T04:39:58;3.5;;;2.2;;
24867;SDS011;12941;48.698;9.310;2023-08-06T04:40:59;3.5;;;2.2;;
24867;SDS011;12941;48.698;9.310;2023-08-06T04:41:59;2.3;;;1.7;;
24867;SDS011;12941;48.698;9.310;2023-08-06T04:43:03;2.3;;;1.7;;
24867;SDS011;12941;48.698;9.310;2023-08-06T04:44:03;2.3;;;1.7;;
24867;SDS011;12941;48.698;9.310;2023-08-06T04:45:09;2.3;;;1.7;;
24867;SDS011;12941;48.698;9.310;2023-08-06T04:46:09;2.3;;;1.7;;
24867;SDS011;12941;48.698;9.310;2023-08-06T04:47:09;2.8;;;1.7;;
24867;SDS011;12941;48.698;9.310;2023-08-06T04:48:15;2.8;;;1.7;;
24867;SDS011;12941;48.698;9.310;2023-08-06T04:49:19;2.8;;;1.7;;
24867;SDS011;12941;48.698;9.310;2023-08-06T04:50:24;2.8;;;1.7;;
24867;SDS011;12941;48.698;9.310;2023-08-06T04:51:24;2.8;;;1.7;;
24867;SDS011;12941;48.698;9.310;2023-08-06T04:52:24;1.7;;;1.3;;
24867;SDS011;12941;48.698;9.310;2023-08-06T04:53:24;1.7;;;1.3;;
24867;SDS011;12941;48.698;9.310;2023-08-06T04:54:24;1.7;;;1.3;;
24867;SDS011;12941;48.698;9.310;2023-08-06T04:55:29;1.7;;;1.3;;
24867;SDS011;12941;48.698;9.310;2023-08-06T04:56:29;1.7;;;1.3;;
24867;SDS011;12941;48.698;9.310;2023-08-06T04:57:29;3.3;;;1.4;;
24867;SDS011;12941;48.698;9.310;2023-08-06T04:58:29;3.3;;;1.4;;
24867;SDS011;12941;48.698;9.310;2023-08-06T04:59:34;3.3;;;1.4;;
24867;SDS011;12941;48.698;9.310;2023-08-06T05:00:34;3.3;;;1.4;;
24867;SDS011;12941;48.698;9.310;2023-08-06T05:01:39;3;;;1.1;;
24867;SDS011;12941;48.698;9.310;2023-08-06T05:02:44;2.7;;;1.1;;
24867;SDS011;12941;48.698;9.310;2023-08-06T05:03:49;2.7;;;1.1;;
24867;SDS011;12941;48.698;9.310;2023-08-06T05:04:49;2.7;;;1.1;;
24867;SDS011;12941;48.698;9.310;2023-08-06T05:05:54;2.7;;;1.1;;
24867;SDS011;12941;48.698;9.310;2023-08-06T05:06:59;2.3;;;1.1;;
24867;SDS011;12941;48.698;9.310;2023-08-06T05:07:59;2.3;;;1.1;;
24867;SDS011;12941;48.698;9.310;2023-08-06T05:09:04;2.3;;;1.1;;
24867;SDS011;12941;48.698;9.310;2023-08-06T05:10:04;2.3;;;1.1;;
24867;SDS011;12941;48.698;9.310;2023-08-06T05:11:04;2.3;;;1.1;;
24867;SDS011;12941;48.698;9.310;2023-08-06T05:12:04;1.8;;;1;;
24867;SDS011;12941;48.698;9.310;2023-08-06T05:13:09;1.8;;;1;;
24867;SDS011;12941;48.698;9.310;2023-08-06T05:14:09;1.8;;;1;;
24867;SDS011;12941;48.698;9.310;2023-08-06T05:15:14;1.8;;;1;;
24867;SDS011;12941;48.698;9.310;2023-08-06T05:16:14;1.8;;;1;;
24867;SDS011;12941;48.698;9.310;2023-08-06T05:17:14;1;;;0.8;;
24867;SDS011;12941;48.698;9.310;2023-08-06T05:18:19;1;;;0.8;;
24867;SDS011;12941;48.698;9.310;2023-08-06T05:19:24;1;;;0.8;;
24867;SDS011;12941;48.698;9.310;2023-08-06T05:20:24;1;;;0.8;;
24867;SDS011;12941;48.698;9.310;2023-08-06T05:21:29;1;;;0.8;;
24867;SDS011;12941;48.698;9.310;2023-08-06T05:22:29;1.4;;;0.8;;
24867;SDS011;12941;48.698;9.310;2023-08-06T05:23:29;1.4;;;0.8;;
24867;SDS011;12941;48.698;9.310;2023-08-06T05:24:34;1.4;;;0.8;;
24867;SDS011;12941;48.698;9.310;2023-08-06T05:25:34;1.4;;;0.8;;
24867;SDS011;12941;48.698;9.310;2023-08-06T05:26:39;1.2;;;0.7;;
24867;SDS011;12941;48.698;9.310;2023-08-06T05:27:39;1.2;;;0.6;;
24867;SDS011;12941;48.698;9.310;2023-08-06T05:28:44;1.2;;;0.6;;
24867;SDS011;12941;48.698;9.310;2023-08-06T05:29:44;1.2;;;0.6;;
24867;SDS011;12941;48.698;9.310;2023-08-06T05:30:49;1.2;;;0.6;;
24867;SDS011;12941;48.698;9.310;2023-08-06T05:31:49;1.4;;;0.7;;
24867;SDS011;12941;48.698;9.310;2023-08-06T05:32:49;1.4;;;0.7;;
24867;SDS011;12941;48.698;9.310;2023-08-06T05:33:54;1.4;;;0.7;;
24867;SDS011;12941;48.698;9.310;2023-08-06T05:34:54;1.4;;;0.7;;
24867;SDS011;12941;48.698;9.310;2023-08-06T05:35:59;1.4;;;0.7;;
24867;SDS011;12941;48.698;9.310;2023-08-06T05:37:04;0.7;;;0.7;;
24867;SDS011;12941;48.698;9.310;2023-08-06T05:38:04;0.7;;;0.7;;
24867;SDS011;12941;48.698;9.310;2023-08-06T05:39:09;0.7;;;0.7;;
24867;SDS011;12941;48.698;9.310;2023-08-06T05:40:09;0.7;;;0.7;;
24867;SDS011;12941;48.698;9.310;2023-08-06T05:41:09;0.7;;;0.7;;
24867;SDS011;12941;48.698;9.310;2023-08-06T05:42:14;1.9;;;1;;
24867;SDS011;12941;48.698;9.310;2023-08-06T05:43:19;1.9;;;1;;
24867;SDS011;12941;48.698;9.310;2023-08-06T05:44:24;1.9;;;1;;
24867;SDS011;12941;48.698;9.310;2023-08-06T05:45:24;1.9;;;1;;
24867;SDS011;12941;48.698;9.310;2023-08-06T05:46:29;1.9;;;1;;
24867;SDS011;12941;48.698;9.310;2023-08-06T05:47:34;1.6;;;0.7;;
24867;SDS011;12941;48.698;9.310;2023-08-06T05:48:39;1.6;;;0.7;;
24867;SDS011;12941;48.698;9.310;2023-08-06T05:49:44;1.6;;;0.7;;
24867;SDS011;12941;48.698;9.310;2023-08-06T05:50:44;1.6;;;0.7;;
24867;SDS011;12941;48.698;9.310;2023-08-06T05:51:44;1.9;;;0.9;;
24867;SDS011;12941;48.698;9.310;2023-08-06T05:52:49;1.9;;;0.9;;
24867;SDS011;12941;48.698;9.310;2023-08-06T05:53:54;1.9;;;0.9;;
24867;SDS011;12941;48.698;9.310;2023-08-06T05:54:54;1.9;;;0.9;;
24867;SDS011;12941;48.698;9.310;2023-08-06T05:55:59;1.9;;;0.9;;
24867;SDS011;12941;48.698;9.310;2023-08-06T05:56:59;1.5;;;0.8;;
24867;SDS011;12941;48.698;9.310;2023-08-06T05:58:04;1.5;;;0.8;;
24867;SDS011;12941;48.698;9.310;2023-08-06T05:59:09;1.5;;;0.8;;
24867;SDS011;12941;48.698;9.310;2023-08-06T06:00:14;1.5;;;0.8;;
24867;SDS011;12941;48.698;9.310;2023-08-06T06:01:14;1.5;;;0.8;;
24867;SDS011;12941;48.698;9.310;2023-08-06T06:02:19;1.5;;;0.9;;
24867;SDS011;12941;48.698;9.310;2023-08-06T06:03:19;1.5;;;0.9;;
24867;SDS011;12941;48.698;9.310;2023-08-06T06:04:24;1.5;;;0.9;;
24867;SDS011;12941;48.698;9.310;2023-08-06T06:05:24;1.5;;;0.9;;
24867;SDS011;12941;48.698;9.310;2023-08-06T06:06:29;1.5;;;0.9;;
24867;SDS011;12941;48.698;9.310;2023-08-06T06:07:29;2.8;;;0.8;;
24867;SDS011;12941;48.698;9.310;2023-08-06T06:08:34;2.8;;;0.8;;
24867;SDS011;12941;48.698;9.310;2023-08-06T06:09:34;2.8;;;0.8;;
24867;SDS011;12941;48.698;9.310;2023-08-06T06:10:39;2.8;;;0.8;;
24867;SDS011;12941;48.698;9.310;2023-08-06T06:11:39;1.1;;;0.9;;
24867;SDS011;12941;48.698;9.310;2023-08-06T06:12:40;1.1;;;0.9;;
24867;SDS011;12941;48.698;9.310;2023-08-06T06:13:39;1.1;;;0.9;;
24867;SDS011;12941;48.698;9.310;2023-08-06T06:14:39;1.1;;;0.9;;
24867;SDS011;12941;48.698;9.310;2023-08-06T06:15:46;1.1;;;0.9;;
24867;SDS011;12941;48.698;9.310;2023-08-06T06:16:49;2.1;;;0.8;;
24867;SDS011;12941;48.698;9.310;2023-08-06T06:17:49;2.1;;;0.8;;
24867;SDS011;12941;48.698;9.310;2023-08-06T06:18:55;2.1;;;0.8;;
24867;SDS011;12941;48.698;9.310;2023-08-06T06:19:54;2.1;;;0.8;;
24867;SDS011;12941;48.698;9.310;2023-08-06T06:20:55;2.1;;;0.8;;
24867;SDS011;12941;48.698;9.310;2023-08-06T06:21:54;2.6;;;0.9;;
24867;SDS011;12941;48.698;9.310;2023-08-06T06:22:59;2.6;;;0.9;;
24867;SDS011;12941;48.698;9.310;2023-08-06T06:23:59;2.6;;;0.9;;
24867;SDS011;12941;48.698;9.310;2023-08-06T06:24:59;2.6;;;0.9;;
24867;SDS011;12941;48.698;9.310;2023-08-06T06:25:59;2.6;;;0.9;;
24867;SDS011;12941;48.698;9.310;2023-08-06T06:26:59;1.8;;;0.7;;
24867;SDS011;12941;48.698;9.310;2023-08-06T06:28:04;1.8;;;0.7;;
24867;SDS011;12941;48.698;9.310;2023-08-06T06:29:09;1.8;;;0.7;;
24867;SDS011;12941;48.698;9.310;2023-08-06T06:30:14;1.8;;;0.7;;